createdAt,value
2023-03-16T00:04:41.030Z,5.73
2023-03-16T00:09:49.184Z,4.41
2023-03-16T00:14:57.927Z,3.61
2023-03-16T00:20:06.135Z,2.63
2023-03-16T00:25:14.659Z,2.23
2023-03-16T00:30:23.408Z,3.11
2023-03-16T00:35:32.621Z,2.35
2023-03-16T00:40:41.495Z,3.58
2023-03-16T00:45:50.224Z,3.19
2023-03-16T00:50:58.477Z,2.52
2023-03-16T00:56:07.362Z,2.70
2023-03-16T01:01:15.608Z,3.17
2023-03-16T01:06:24.138Z,3.56
2023-03-16T01:11:32.610Z,4.33
2023-03-16T01:16:41.699Z,6.28
2023-03-16T01:21:50.464Z,8.82
2023-03-16T01:26:59.131Z,9.80
2023-03-16T01:32:07.879Z,10.99
2023-03-16T01:37:16.598Z,13.44
2023-03-16T01:42:24.847Z,11.46
2023-03-16T01:47:33.914Z,7.59
2023-03-16T01:52:42.142Z,7.57
2023-03-16T01:57:50.733Z,16.53
2023-03-16T02:02:59.246Z,9.43
2023-03-16T02:08:07.929Z,11.58
2023-03-16T02:13:16.232Z,11.66
2023-03-16T02:18:25.201Z,8.50
2023-03-16T02:23:33.764Z,9.73
2023-03-16T02:28:42.415Z,10.40
2023-03-16T02:33:50.751Z,12.12
2023-03-16T02:38:59.686Z,8.68
2023-03-16T02:44:08.122Z,9.09
2023-03-16T02:49:17.196Z,7.65
2023-03-16T02:54:25.596Z,9.21
2023-03-16T02:59:34.827Z,8.42
2023-03-16T03:04:43.182Z,10.62
2023-03-16T03:09:51.618Z,9.86
2023-03-16T03:15:00.215Z,8.91
2023-03-16T03:20:09.179Z,8.15
2023-03-16T03:25:17.573Z,6.54
2023-03-16T03:30:26.562Z,5.60
2023-03-16T03:35:34.663Z,5.27
2023-03-16T03:40:43.940Z,3.98
2023-03-16T03:45:52.498Z,4.28
2023-03-16T03:51:01.275Z,2.95
2023-03-16T03:56:09.772Z,3.74
2023-03-16T04:01:18.609Z,2.81
2023-03-16T04:06:26.732Z,3.03
2023-03-16T04:11:35.554Z,4.42
2023-03-16T04:16:43.850Z,4.03
2023-03-16T04:21:52.564Z,4.55
2023-03-16T04:27:01.155Z,6.37
2023-03-16T04:32:10.111Z,8.75
2023-03-16T04:37:18.754Z,14.03
2023-03-16T04:42:27.730Z,13.30
2023-03-16T04:47:36.074Z,19.26
2023-03-16T04:52:44.648Z,17.52
2023-03-16T04:57:52.942Z,25.28
2023-03-16T05:03:01.632Z,20.77
2023-03-16T05:08:10.338Z,24.65
2023-03-16T05:13:19.503Z,24.78
2023-03-16T05:18:27.940Z,29.65
2023-03-16T05:23:36.514Z,26.14
2023-03-16T05:28:44.465Z,29.23
2023-03-16T05:33:53.549Z,27.05
2023-03-16T05:39:02.548Z,20.62
2023-03-16T05:44:11.822Z,16.59
2023-03-16T05:49:20.169Z,15.62
2023-03-16T05:54:29.157Z,11.28
2023-03-16T05:59:37.579Z,10.92
2023-03-16T06:04:47.746Z,18.03
2023-03-16T06:09:45.777Z,13.23
2023-03-16T06:14:54.459Z,14.10
2023-03-16T06:20:04.011Z,12.44
2023-03-16T06:25:12.565Z,8.28
2023-03-16T06:30:23.538Z,6.37
2023-03-16T06:35:21.973Z,6.31
2023-03-16T06:40:31.549Z,3.93
2023-03-16T06:45:40.761Z,2.86
2023-03-16T06:50:52.285Z,3.47
2023-03-16T06:55:51.693Z,4.08
2023-03-16T07:01:00.218Z,3.85
2023-03-16T07:06:10.156Z,4.08
2023-03-16T07:11:18.415Z,3.24
2023-03-16T07:16:29.531Z,8.93
2023-03-16T07:21:28.773Z,7.66
2023-03-16T07:26:38.191Z,6.82
2023-03-16T07:31:46.779Z,9.24
2023-03-16T07:36:56.881Z,6.25
2023-03-16T07:41:56.673Z,4.96
2023-03-16T07:47:06.792Z,4.39
2023-03-16T07:52:07.295Z,5.29
2023-03-16T07:57:05.356Z,7.20
2023-03-16T08:02:13.655Z,5.26
2023-03-16T08:07:23.523Z,12.18
2023-03-16T08:12:33.463Z,6.84
2023-03-16T08:17:43.692Z,6.63
2023-03-16T08:22:43.073Z,6.90
2023-03-16T08:27:53.553Z,8.14
2023-03-16T08:32:53.141Z,9.16
2023-03-16T08:38:04.090Z,13.61
2023-03-16T08:43:02.012Z,17.58
2023-03-16T08:48:11.891Z,18.60
2023-03-16T08:53:21.805Z,18.60
2023-03-16T08:58:31.590Z,16.12
2023-03-16T09:03:41.733Z,17.49
2023-03-16T09:08:40.859Z,15.95
2023-03-16T09:13:52.817Z,8.43
2023-03-16T09:19:00.203Z,6.20
2023-03-16T09:24:09.812Z,13.98
2023-03-16T09:29:19.680Z,13.68
2023-03-16T09:34:29.949Z,18.35
2023-03-16T09:39:38.781Z,11.86
2023-03-16T09:44:36.912Z,11.07
2023-03-16T09:49:45.512Z,6.50
2023-03-16T09:54:54.647Z,7.11
2023-03-16T10:00:03.934Z,8.58
2023-03-16T10:05:12.625Z,8.39
2023-03-16T10:10:22.935Z,9.06
2023-03-16T10:15:21.257Z,13.05
2023-03-16T10:20:30.707Z,9.03
2023-03-16T10:25:39.048Z,9.20
2023-03-16T10:30:49.988Z,10.01
2023-03-16T10:35:48.166Z,9.60
2023-03-16T10:40:56.951Z,8.70
2023-03-16T10:46:05.901Z,8.33
2023-03-16T10:51:15.840Z,8.66
2023-03-16T10:56:24.036Z,6.67
2023-03-16T11:01:33.771Z,5.61
2023-03-16T11:06:42.752Z,6.35
2023-03-16T11:11:51.185Z,6.03
2023-03-16T11:17:00.264Z,6.42
2023-03-16T11:22:08.833Z,9.56
2023-03-16T11:27:17.886Z,7.86
2023-03-16T11:32:29.864Z,8.78
2023-03-16T11:37:27.645Z,5.61
2023-03-16T11:42:38.661Z,5.45
2023-03-16T11:47:37.014Z,5.71
2023-03-16T11:52:47.882Z,5.40
2023-03-16T11:57:47.200Z,5.69
2023-03-16T12:02:55.967Z,5.16
2023-03-16T12:08:05.597Z,5.42
2023-03-16T12:13:14.133Z,5.91
2023-03-16T12:18:22.124Z,4.16
2023-03-16T12:23:31.818Z,4.29
2023-03-16T12:28:41.464Z,4.73
2023-03-16T12:33:50.537Z,3.87
2023-03-16T12:39:01.539Z,5.70
2023-03-16T12:44:00.949Z,8.80
2023-03-16T12:49:10.987Z,8.48
2023-03-16T12:54:15.063Z,7.25
2023-03-16T12:59:13.958Z,10.86
2023-03-16T13:04:24.123Z,7.33
2023-03-16T13:09:32.367Z,8.49
2023-03-16T13:14:42.401Z,13.18
2023-03-16T13:19:41.621Z,13.57
2023-03-16T13:24:51.523Z,4.43
2023-03-16T13:30:01.146Z,5.16
2023-03-16T13:35:11.420Z,9.85
2023-03-16T13:40:09.821Z,3.72
2023-03-16T13:45:20.537Z,6.06
2023-03-16T13:50:19.776Z,4.27
2023-03-16T13:55:28.213Z,1.76
2023-03-16T14:00:36.552Z,2.14
2023-03-16T14:05:45.062Z,1.42
2023-03-16T14:10:55.523Z,1.74
2023-03-16T14:15:56.765Z,1.56
2023-03-16T14:20:55.662Z,3.77
2023-03-16T14:26:04.866Z,2.32
2023-03-16T14:31:14.484Z,1.44
2023-03-16T14:36:23.889Z,2.71
2023-03-16T14:41:32.847Z,2.75
2023-03-16T14:46:42.743Z,2.87
2023-03-16T14:51:51.725Z,4.36
2023-03-16T14:57:01.284Z,3.96
2023-03-16T15:02:11.197Z,7.27
2023-03-16T15:07:21.191Z,6.57
2023-03-16T15:12:31.712Z,7.33
2023-03-16T15:17:31.361Z,8.09
2023-03-16T15:22:39.658Z,4.58
2023-03-16T15:27:49.387Z,6.14
2023-03-16T15:32:58.074Z,4.43
2023-03-16T15:38:07.508Z,4.69
2023-03-16T15:43:15.316Z,4.32
2023-03-16T15:48:25.204Z,3.89
2023-03-16T15:53:30.921Z,4.51
2023-03-16T15:58:36.243Z,3.71
2023-03-16T16:03:44.647Z,3.92
2023-03-16T16:08:56.653Z,4.93
2023-03-16T16:13:54.598Z,4.15
2023-03-16T16:19:04.057Z,5.75
2023-03-16T16:24:14.280Z,5.67
2023-03-16T16:29:12.637Z,6.02
2023-03-16T16:34:21.758Z,5.06
2023-03-16T16:39:31.256Z,7.45
2023-03-16T16:44:39.541Z,5.78
2023-03-16T16:49:50.159Z,6.74
2023-03-16T16:54:48.405Z,5.14
2023-03-16T16:59:59.660Z,5.70
2023-03-16T17:04:57.492Z,5.74
2023-03-16T17:10:07.766Z,4.33
2023-03-16T17:15:05.917Z,6.00
2023-03-16T17:20:16.154Z,4.52
2023-03-16T17:25:14.275Z,4.86
2023-03-16T17:30:22.630Z,6.19
2023-03-16T17:35:31.984Z,6.58
2023-03-16T17:40:42.423Z,7.38
2023-03-16T17:45:45.598Z,7.84
2023-03-16T17:50:46.732Z,7.53
2023-03-16T17:55:48.447Z,7.03
2023-03-16T18:00:49.458Z,7.50
2023-03-16T18:05:52.737Z,7.40
2023-03-16T18:10:51.660Z,7.23
2023-03-16T18:16:01.335Z,7.77
2023-03-16T18:21:09.798Z,7.43
2023-03-16T18:26:18.683Z,7.34
2023-03-16T18:31:28.730Z,6.93
2023-03-16T18:36:38.037Z,6.74
2023-03-16T18:41:47.741Z,8.43
2023-03-16T18:46:56.318Z,7.44
2023-03-16T18:52:04.967Z,6.11
2023-03-16T18:57:14.501Z,6.24
2023-03-16T19:02:24.431Z,6.01
2023-03-16T19:07:27.797Z,6.32
2023-03-16T19:12:37.113Z,5.34
2023-03-16T19:17:46.896Z,5.80
2023-03-16T19:22:58.008Z,5.70
2023-03-16T19:27:57.602Z,4.43
2023-03-16T19:33:08.014Z,5.18
2023-03-16T19:38:06.418Z,4.92
2023-03-16T19:43:16.411Z,4.04
2023-03-16T19:48:24.979Z,4.71
2023-03-16T19:53:37.406Z,3.64
2023-03-16T19:58:36.498Z,3.28
2023-03-16T20:03:46.141Z,3.83
2023-03-16T20:08:55.963Z,3.27
2023-03-16T20:14:05.650Z,3.51
2023-03-16T20:19:13.885Z,3.48
2023-03-16T20:24:23.549Z,5.39
2023-03-16T20:29:32.092Z,5.46
2023-03-16T20:34:41.713Z,3.96
2023-03-16T20:39:50.883Z,4.42
2023-03-16T20:45:00.351Z,5.51
2023-03-16T20:50:08.532Z,3.80
2023-03-16T20:55:18.071Z,2.80
2023-03-16T21:00:27.681Z,3.68
2023-03-16T21:05:37.028Z,3.05
2023-03-16T21:10:46.859Z,2.73
2023-03-16T21:15:56.301Z,2.77
2023-03-16T21:21:00.652Z,2.65
2023-03-16T21:26:10.994Z,3.09
2023-03-16T21:31:09.580Z,4.25
2023-03-16T21:36:18.062Z,3.68
2023-03-16T21:41:27.396Z,5.23
2023-03-16T21:46:36.153Z,4.73
2023-03-16T21:51:44.262Z,3.95
2023-03-16T21:56:54.803Z,3.88
2023-03-16T22:02:01.597Z,4.44
2023-03-16T22:07:02.795Z,4.01
2023-03-16T22:12:10.658Z,3.39
2023-03-16T22:17:20.435Z,3.85
2023-03-16T22:22:30.559Z,3.37
2023-03-16T22:27:29.302Z,5.23
2023-03-16T22:32:38.843Z,3.99
2023-03-16T22:37:48.588Z,4.19
2023-03-16T22:42:58.180Z,5.33
2023-03-16T22:48:06.731Z,5.23
2023-03-16T22:53:15.907Z,5.64
2023-03-16T22:58:25.682Z,7.11
2023-03-16T23:03:35.145Z,7.89
2023-03-16T23:08:46.427Z,7.56
2023-03-16T23:13:44.611Z,9.10
2023-03-16T23:18:56.254Z,6.89
2023-03-16T23:24:03.485Z,6.45
2023-03-16T23:29:02.961Z,5.65
2023-03-16T23:34:11.494Z,4.91
2023-03-16T23:39:21.725Z,4.96
2023-03-16T23:44:20.921Z,4.46
2023-03-16T23:49:32.972Z,5.62
2023-03-16T23:54:30.845Z,5.85
2023-03-16T23:59:40.693Z,5.25
